»·PEaware :: UAL3227 KPDX-KOTH

UAL3227 :: KPDX-KOTH

FLIGHT INFORMATION

Flight Status: Arrived
Operator:
United Airlines
More flights by this operator :: More flights under this callsign
Pilot: Anonymous 18910 (18910)
Aircraft: AIRBUS A319
(A319)
More flights by this aircraft type
Origin: KPDX Portland Intl
United States
Destination: KOTH North Bend Mun
United States
More flights between these airports :: More routes between these airports
Route: MINNE5 EASON
File this flight plan on PilotEdge
Remarks:
Altitude:
(Current/Filed)
14,000ft
Speed:
(Current/Filed)
300kts
Departed: 24-Jun-18 07:01 PM
Arrived: 24-Jun-18 07:43 PM
Distance/Time
Traveled:
148nm/0:42
Distance/Time
To Go:
Arrived

Flight Plot

Page will automatically refresh every two minutes.

Flight plan parsing failed; only flown route is shown


Map Options




Map Legend


Flown Route
Filed Route
Departure Airport
Arrival Airport
Navaid (VOR, NDB)
Fix

Horizontal Profiles

Position Reports

Time Latitude Longitude Heading Altitude Ground
Speed
24-Jun-18 18:46 45.590039 -122.591052 209 28ft 0kts
24-Jun-18 18:47 45.590039 -122.591052 209 28ft 0kts
24-Jun-18 18:48 45.590039 -122.591052 209 28ft 0kts
24-Jun-18 18:49 45.590039 -122.591052 209 28ft 0kts
24-Jun-18 18:50 45.590039 -122.591052 209 28ft 0kts
24-Jun-18 18:51 45.590039 -122.591052 209 28ft 0kts
24-Jun-18 18:52 45.590039 -122.591052 209 28ft 0kts
24-Jun-18 18:53 45.590039 -122.591052 209 28ft 0kts
24-Jun-18 18:54 45.590305 -122.590837 209 28ft 0kts
24-Jun-18 18:55 45.590642 -122.591002 118 28ft 0kts
24-Jun-18 18:56 45.590641 -122.591002 117 28ft 0kts
24-Jun-18 18:57 45.590570 -122.590545 99 28ft 4kts
24-Jun-18 18:58 45.589616 -122.585361 118 27ft 22kts
24-Jun-18 18:59 45.585690 -122.575460 118 26ft 33kts
24-Jun-18 19:00 45.582908 -122.567276 57 28ft 9kts
24-Jun-18 19:01 45.591078 -122.586110 297 28ft 158kts
24-Jun-18 19:02 45.613532 -122.647051 286 2016ft 196kts
24-Jun-18 19:03 45.640790 -122.729370 298 4117ft 263kts
24-Jun-18 19:04 45.671116 -122.825387 263 7354ft 276kts
24-Jun-18 19:05 45.633565 -122.919144 200 10226ft 285kts
24-Jun-18 19:06 45.545379 -122.932139 186 11622ft 356kts
24-Jun-18 19:07 45.445503 -122.943544 186 13977ft 366kts
24-Jun-18 19:08 45.344409 -122.955262 186 14005ft 364kts
24-Jun-18 19:09 45.243503 -122.967647 189 14013ft 363kts
24-Jun-18 19:10 45.147666 -123.007382 200 14016ft 360kts
24-Jun-18 19:11 45.053525 -123.054574 200 14015ft 361kts
24-Jun-18 19:12 44.959452 -123.101606 201 14017ft 354kts
24-Jun-18 19:13 44.867454 -123.147576 201 14004ft 353kts
24-Jun-18 19:14 44.776357 -123.192827 201 12096ft 344kts
24-Jun-18 19:15 44.687498 -123.236856 203 10052ft 327kts
24-Jun-18 19:16 44.620520 -123.299665 217 9996ft 261kts
24-Jun-18 19:17 44.561297 -123.358456 216 9867ft 258kts
24-Jun-18 19:18 44.502247 -123.416150 217 8266ft 259kts
24-Jun-18 19:19 44.443456 -123.473364 218 6741ft 258kts
24-Jun-18 19:20 44.384813 -123.530286 218 6005ft 258kts
24-Jun-18 19:21 44.325726 -123.587454 218 6003ft 259kts
24-Jun-18 19:22 44.266440 -123.644665 218 5810ft 261kts
24-Jun-18 19:23 44.206705 -123.702435 217 5837ft 264kts
24-Jun-18 19:24 44.146044 -123.760737 217 5873ft 265kts
24-Jun-18 19:25 44.085535 -123.818672 217 5913ft 265kts
24-Jun-18 19:26 44.024741 -123.876746 217 5947ft 264kts
24-Jun-18 19:27 43.964209 -123.934395 217 5956ft 265kts
24-Jun-18 19:28 43.903448 -123.992134 217 5960ft 265kts
24-Jun-18 19:29 43.843270 -124.048873 217 5963ft 265kts
24-Jun-18 19:30 43.782210 -124.106574 218 5966ft 265kts
24-Jun-18 19:31 43.720809 -124.162855 215 5986ft 265kts
24-Jun-18 19:32 43.664592 -124.211707 216 5995ft 223kts
24-Jun-18 19:33 43.612078 -124.257534 216 6029ft 223kts
24-Jun-18 19:34 43.559585 -124.303216 216 6089ft 223kts
24-Jun-18 19:35 43.508614 -124.347368 217 6128ft 194kts
24-Jun-18 19:36 43.471075 -124.394225 245 6096ft 180kts
24-Jun-18 19:37 43.444917 -124.455764 231 5035ft 192kts
24-Jun-18 19:38 43.396967 -124.476236 168 3823ft 181kts
24-Jun-18 19:39 43.363104 -124.435222 108 2934ft 166kts
24-Jun-18 19:40 43.366593 -124.377258 57 2055ft 153kts
24-Jun-18 19:41 43.386812 -124.328908 57 1161ft 142kts
24-Jun-18 19:42 43.405956 -124.281891 58 340ft 140kts
24-Jun-18 19:43 43.420915 -124.245523 61 13ft 39kts
24-Jun-18 19:44 43.420606 -124.243181 234 13ft 11kts
24-Jun-18 19:45 43.418977 -124.247171 240 13ft 10kts
24-Jun-18 19:46 43.417038 -124.249455 215 13ft 5kts

Navigation Log

Ident Type
Flight plan parsing failed, navigation log unavailable